x

Georgian Bay (45137) Wave Buoy

2:00am - Sun 30th Aug 2015 All times are CDT. -5 hours from GMT.

  • Sig Wave height 0.3ft
  • Peak Period 3s
  • Wind
    9mph
  • Sea Temp 65°f
  • Air Temp 64°f
  • Sea Pressure 1017.6mb
  • Georgian Bay
  • Georgian Bay

More Historic Weather Station data

Upgrade to MSW Pro to gain access to the past 30 days of data for over 8000 Wavebouys and Weather Stations around the globe.

Join Pro

Comparision Forecast

View Surf forecast
   
Sun 08/30 2:00am 0.3ft 3s 9
mph
1017.6mb 65f 64f
1:00am 0.7ft 3s 7
mph
1017.7mb 65f 65f
12:00am 0.7ft 4s 7 9 mph 1018.3mb 65f 64f
Sat 08/29 11:00pm 0.7ft 4s 4 7 mph 1018.6mb 65f 65f
10:00pm 0.7ft 4s 7 9 mph 1018.9mb 65f 65f
9:00pm 0.7ft 3s 7 9 mph 1019.1mb 65f 65f
8:00pm 1ft 3s 7
mph
1018.7mb 65f 65f
7:00pm 1ft 3s 9
mph
1018.4mb 65f 65f
6:00pm 1ft 3s 9 11 mph 1018.4mb 65f 65f
5:00pm 1.3ft 4s 11 13 mph 1018.8mb 65f 65f
4:00pm 1.3ft 3s 13 16 mph 1018.7mb 65f 65f
3:00pm 1.3ft 4s 13 16 mph 1019.2mb 65f 64f
2:00pm 1.6ft 4s 11 13 mph 1019.3mb 65f 64f
1:00pm 2ft 4s 13 16 mph 1019.4mb 65f 64f
12:00pm 2ft 4s 13 18 mph 1019.5mb 65f 64f
11:00am 2ft 4s 18 20 mph 1019.7mb 65f 64f
10:00am 1.6ft 4s 13 16 mph 1019.6mb 65f 64f
9:00am 2ft 4s 13 16 mph 1019.5mb 65f 64f
8:00am 1.6ft 4s 16 18 mph 1019.5mb 65f 64f
7:00am 1.6ft 4s 13 16 mph 1019.4mb 65f 65f
6:00am 1.6ft 3s 13 16 mph 1019.1mb 65f 65f
5:00am 1.6ft 4s 11 13 mph 1018.4mb 65f 65f
4:00am 1.6ft 3s 13
mph
1018.6mb 65f 65f
3:00am 1.6ft 3s 13 16 mph 1018.6mb 65f 65f
2:00am 1.3ft 3s 11 13 mph 1018.8mb 65f 65f
1:00am 1.6ft 4s 13 16 mph 1019.1mb 65f 65f
12:00am 1.3ft 3s 13 16 mph 1019.8mb 65f 65f
Fri 08/28 11:00pm 1.3ft 3s 13 18 mph 1019.8mb 65f 65f
10:00pm 1.3ft 3s 11 13 mph 1019.8mb 65f 65f
9:00pm 1.3ft 3s 11 13 mph 1020.2mb 65f 65f
8:00pm 1.3ft 3s 9 11 mph 1020.4mb 65f 65f
7:00pm 1.3ft 4s 11 13 mph 1020.1mb 65f 65f
6:00pm 1.3ft 3s 11 13 mph 1020mb 65f 65f
5:00pm 1.3ft 3s 11 13 mph 1020.3mb 65f 66f
4:00pm 1ft 4s 13
mph
1020.6mb 66f 66f
3:00pm 1.3ft 4s 9 11 mph 1020.6mb 66f 65f
2:00pm 1.3ft 4s 11 13 mph 1020.7mb 65f 65f
1:00pm 1.3ft 3s 11 13 mph 1021mb 65f 65f
12:00pm 1.6ft 4s 11
mph
1021.6mb 65f 65f
11:00am 1.6ft 3s 11 13 mph 1021.7mb 65f 64f
10:00am 1.6ft 3s 11 13 mph 1021.8mb 65f 64f
9:00am 1.6ft 4s 11 13 mph 1021.5mb 65f 64f
8:00am 1.3ft 3s 11 16 mph 1021.4mb 65f 64f
7:00am 1.3ft 3s 13 16 mph 1021.5mb 65f 63f
6:00am 1.3ft 3s 13 16 mph 1021.2mb 65f 63f
5:00am 1ft 3s 11 16 mph 1020.8mb 65f 62f
4:00am 1ft 3s 11 13 mph 1020.5mb 65f 62f
3:00am 1ft 3s 11 13 mph 1020.4mb 65f 62f
2:00am 1ft 3s 9 11 mph 1020.4mb 65f 61f
1:00am 1.3ft 3s 9 13 mph 1020.8mb 65f 61f
12:00am 1.3ft 3s 11 13 mph 1021.1mb 65f 61f
Thu 08/27 11:00pm 1.3ft 3s 13 18 mph 1021.5mb 65f 61f
10:00pm 1.3ft 3s 11 13 mph 1021.5mb 65f 61f
9:00pm 1.3ft 3s 13 18 mph 1021.7mb 65f 61f
8:00pm 1ft 2s 16 18 mph 1021.2mb 65f 61f
7:00pm 0.7ft 3s 11 13 mph 1021mb 65f 61f
6:00pm 0.7ft 3s 7 11 mph 1020.9mb 65f 61f
5:00pm 0.3ft 2s 9 11 mph 1021.1mb 65f 61f
4:00pm 0.3ft 2s 4 7 mph 1021.1mb 66f 60f
3:00pm 0.7ft 2s 4
mph
1021.3mb 66f 60f
2:00pm 0.7ft 3s 7 9 mph 1021.6mb 66f 60f
1:00pm 0.7ft 3s 4 9 mph 1021.5mb 65f 60f
12:00pm 1ft 3s 7 9 mph 1021.9mb 65f 59f
11:00am 1ft 3s 9 11 mph 1022mb 65f 59f
10:00am 1ft 3s 7 9 mph 1021.8mb 65f 59f
9:00am 1.3ft 3s 7 9 mph 1021.4mb 65f 58f
8:00am 1ft 3s 11 13 mph 1021.2mb 65f 58f
7:00am 1.3ft 3s 9 13 mph 1021mb 65f 59f
6:00am 1.3ft 3s 11 13 mph 1020.5mb 65f 59f
5:00am 1.3ft 3s 4 7 mph 1019.9mb 65f 59f
4:00am 1.6ft 3s 9 11 mph 1019.5mb 65f 59f
3:00am 1.6ft 3s 11 16 mph 1019mb 65f 59f
2:00am 2ft 3s 13 16 mph 1018.7mb 65f 59f
1:00am 2ft 3s 13 18 mph 1018.8mb 65f 59f
12:00am 2ft 4s 13 16 mph 1018.8mb 65f 59f
Wed 08/26 11:00pm 2.5ft 4s 13 18 mph 1018.1mb 65f 60f
10:00pm 2ft 4s 16 20 mph 1018mb 65f 60f
9:00pm 2.5ft 4s 11 16 mph 1018.1mb 65f 58f
8:00pm 2.5ft 4s 18 22 mph 1017.5mb 65f 59f
7:00pm 3ft 4s 18 22 mph 1016.7mb 65f 59f
6:00pm 2.5ft 4s 18 20 mph 1016.2mb 65f 62f
5:00pm 2.5ft 4s 13 18 mph 1016.1mb 66f 62f
4:00pm 2ft 4s 13 18 mph 1016mb 66f 61f
3:00pm 2ft 3s 13 16 mph 1015.9mb 66f 61f
2:00pm 2ft 4s 11 13 mph 1016.1mb 66f 61f
1:00pm 2ft 3s 16 18 mph 1015.9mb 66f 60f
12:00pm 1.6ft 4s 13 18 mph 1015.9mb 65f 60f
11:00am 2ft 3s 11 13 mph 1016mb 65f 58f
10:00am 2ft 4s 11 16 mph 1015.6mb 65f 59f
9:00am 2.5ft 4s 13 18 mph 1014.9mb 65f 58f